createdAt,value
2023-01-20T00:01:57.169Z,48.50
2023-01-20T00:04:23.670Z,48.80
2023-01-20T00:06:50.228Z,47.40
2023-01-20T00:09:17.907Z,48.10
2023-01-20T00:11:44.782Z,48.50
2023-01-20T00:14:11.669Z,48.20
2023-01-20T00:16:38.370Z,47.60
2023-01-20T00:19:05.118Z,48.40
2023-01-20T00:21:31.668Z,48.60
2023-01-20T00:23:58.214Z,48.80
2023-01-20T00:26:25.236Z,48.70
2023-01-20T00:28:55.727Z,48.30
2023-01-20T00:31:26.568Z,48.80
2023-01-20T00:33:54.447Z,48.70
2023-01-20T00:36:22.860Z,48.70
2023-01-20T00:38:49.678Z,48.70
2023-01-20T00:41:16.502Z,49.30
2023-01-20T00:43:43.131Z,49.60
2023-01-20T00:46:09.741Z,49.20
2023-01-20T00:48:36.633Z,49.10
2023-01-20T00:51:03.995Z,49.30
2023-01-20T00:53:30.774Z,49.50
2023-01-20T00:55:57.448Z,49.30
2023-01-20T00:58:24.069Z,49.90
2023-01-20T01:00:51.485Z,49.20
2023-01-20T01:03:18.538Z,49.30
2023-01-20T01:05:45.423Z,49.60
2023-01-20T01:08:12.123Z,49.70
2023-01-20T01:10:39.053Z,49.70
2023-01-20T01:13:06.070Z,50.00
2023-01-20T01:15:32.644Z,49.90
2023-01-20T01:17:59.430Z,50.40
2023-01-20T01:20:26.200Z,50.00
2023-01-20T01:22:52.838Z,49.80
2023-01-20T01:25:19.398Z,50.00
2023-01-20T01:27:45.928Z,50.10
2023-01-20T01:30:12.926Z,50.40
2023-01-20T01:32:39.534Z,50.70
2023-01-20T01:35:06.340Z,50.50
2023-01-20T01:37:32.912Z,51.20
2023-01-20T01:39:59.579Z,50.90
2023-01-20T01:42:26.445Z,51.70
2023-01-20T01:45:11.443Z,51.70
2023-01-20T01:47:39.586Z,51.10
2023-01-20T01:50:06.749Z,50.30
2023-01-20T01:52:33.519Z,51.00
2023-01-20T01:55:00.306Z,51.80
2023-01-20T01:57:27.193Z,53.90
2023-01-20T01:59:53.809Z,53.30
2023-01-20T02:02:20.498Z,52.20
2023-01-20T02:04:50.638Z,51.50
2023-01-20T02:07:19.310Z,51.80
2023-01-20T02:09:46.563Z,52.10
2023-01-20T02:12:17.873Z,52.00
2023-01-20T02:14:47.101Z,50.90
2023-01-20T02:17:31.114Z,51.70
2023-01-20T02:20:00.491Z,52.10
2023-01-20T02:22:38.598Z,51.80
2023-01-20T02:25:14.180Z,51.10
2023-01-20T02:27:59.508Z,51.20
2023-01-20T02:30:34.666Z,53.40
2023-01-20T02:33:15.957Z,54.00
2023-01-20T02:35:45.660Z,54.00
2023-01-20T02:38:31.069Z,54.00
2023-01-20T02:40:59.562Z,55.60
2023-01-20T02:43:44.979Z,56.50
2023-01-20T02:46:20.006Z,55.80
2023-01-20T02:48:51.537Z,55.70
2023-01-20T02:51:21.091Z,56.80
2023-01-20T02:53:49.454Z,56.80
2023-01-20T02:56:16.759Z,56.40
2023-01-20T02:58:47.666Z,57.10
2023-01-20T03:01:17.131Z,57.70
2023-01-20T03:03:45.858Z,58.30
2023-01-20T03:06:16.539Z,58.90
2023-01-20T03:08:44.318Z,59.00
2023-01-20T03:11:11.163Z,59.20
2023-01-20T03:13:41.612Z,60.20
2023-01-20T03:16:14.229Z,62.00
2023-01-20T03:18:41.072Z,62.20
2023-01-20T03:21:08.822Z,63.30
2023-01-20T03:23:36.961Z,63.30
2023-01-20T03:26:06.888Z,63.30
2023-01-20T03:28:33.486Z,63.30
2023-01-20T03:31:01.844Z,63.40
2023-01-20T03:33:28.519Z,63.40
2023-01-20T03:35:55.473Z,63.30
2023-01-20T03:38:22.109Z,63.30
2023-01-20T03:40:53.696Z,63.30
2023-01-20T03:43:26.661Z,64.40
2023-01-20T03:46:03.048Z,66.00
2023-01-20T03:48:58.778Z,66.80
2023-01-20T03:51:33.532Z,67.40
2023-01-20T03:54:02.191Z,68.10
2023-01-20T03:56:32.051Z,68.80
2023-01-20T03:58:59.869Z,69.90
2023-01-20T04:01:31.808Z,70.40
2023-01-20T04:03:59.396Z,69.80
2023-01-20T04:06:27.255Z,70.00
2023-01-20T04:09:00.404Z,71.60
2023-01-20T04:11:27.945Z,71.60
2023-01-20T04:13:54.793Z,71.60
2023-01-20T04:16:22.275Z,71.60
2023-01-20T04:18:50.332Z,71.60
2023-01-20T04:21:37.411Z,71.60
2023-01-20T04:24:07.404Z,71.60
2023-01-20T04:26:33.924Z,71.60
2023-01-20T04:29:09.329Z,71.80
2023-01-20T04:31:37.944Z,73.40
2023-01-20T04:34:05.809Z,73.20
2023-01-20T04:36:32.360Z,74.40
2023-01-20T04:38:58.871Z,74.90
2023-01-20T04:41:25.565Z,75.00
2023-01-20T04:43:52.116Z,75.70
2023-01-20T04:46:18.720Z,76.50
2023-01-20T04:48:46.167Z,76.60
2023-01-20T04:51:12.856Z,76.90
2023-01-20T04:53:39.355Z,76.60
2023-01-20T04:56:10.810Z,76.50
2023-01-20T04:58:37.303Z,76.30
2023-01-20T05:01:03.897Z,77.60
2023-01-20T05:03:30.443Z,78.90
2023-01-20T05:05:57.024Z,79.80
2023-01-20T05:08:23.726Z,79.80
2023-01-20T05:10:50.312Z,79.80
2023-01-20T05:13:16.835Z,79.40
2023-01-20T05:15:43.997Z,77.90
2023-01-20T05:18:10.848Z,77.90
2023-01-20T05:20:37.405Z,77.70
2023-01-20T05:23:04.069Z,77.50
2023-01-20T05:25:30.580Z,77.50
2023-01-20T05:27:58.374Z,77.80
2023-01-20T05:30:24.953Z,77.80
2023-01-20T05:32:52.151Z,77.50
2023-01-20T05:35:18.767Z,77.50
2023-01-20T05:37:45.275Z,77.40
2023-01-20T05:40:12.348Z,77.00
2023-01-20T05:42:38.984Z,77.40
2023-01-20T05:45:05.915Z,76.90
2023-01-20T05:47:32.431Z,77.40
2023-01-20T05:49:58.955Z,77.30
2023-01-20T05:52:25.479Z,78.00
2023-01-20T05:54:52.037Z,78.50
2023-01-20T05:57:18.589Z,78.20
2023-01-20T05:59:47.610Z,78.70
2023-01-20T06:02:18.641Z,78.10
2023-01-20T06:04:45.874Z,79.30
2023-01-20T06:07:12.483Z,78.40
2023-01-20T06:09:38.988Z,78.00
2023-01-20T06:12:05.896Z,78.40
2023-01-20T06:14:32.482Z,77.50
2023-01-20T06:16:59.025Z,78.00
2023-01-20T06:19:25.595Z,78.00
2023-01-20T06:21:53.427Z,78.10
2023-01-20T06:24:20.004Z,78.20
2023-01-20T06:26:46.529Z,78.30
2023-01-20T06:29:13.103Z,78.20
2023-01-20T06:31:39.749Z,78.30
2023-01-20T06:34:06.312Z,77.60
2023-01-20T06:36:32.862Z,78.00
2023-01-20T06:38:59.401Z,77.80
2023-01-20T06:41:25.945Z,77.40
2023-01-20T06:43:52.589Z,77.00
2023-01-20T06:46:19.190Z,76.90
2023-01-20T06:48:46.084Z,76.10
2023-01-20T06:51:14.562Z,76.60
2023-01-20T06:53:41.207Z,76.30
2023-01-20T06:56:09.414Z,77.00
2023-01-20T06:58:35.928Z,76.00
2023-01-20T07:01:11.433Z,76.20
2023-01-20T07:03:38.392Z,76.00
2023-01-20T07:06:07.589Z,76.50
2023-01-20T07:08:34.149Z,76.80
2023-01-20T07:11:00.693Z,76.90
2023-01-20T07:13:27.221Z,76.30
2023-01-20T07:15:53.740Z,77.20
2023-01-20T07:18:20.267Z,77.20
2023-01-20T07:20:46.822Z,77.10
2023-01-20T07:23:13.639Z,76.80
2023-01-20T07:25:40.199Z,77.30
2023-01-20T07:28:06.748Z,77.20
2023-01-20T07:30:33.319Z,77.40
2023-01-20T07:32:59.987Z,76.80
2023-01-20T07:35:26.513Z,77.70
2023-01-20T07:37:55.856Z,77.20
2023-01-20T07:40:22.416Z,77.50
2023-01-20T07:42:48.908Z,78.20
2023-01-20T07:45:16.341Z,78.90
2023-01-20T07:47:42.993Z,79.40
2023-01-20T07:50:09.902Z,79.90
2023-01-20T07:52:36.424Z,79.50
2023-01-20T07:55:02.960Z,80.00
2023-01-20T07:57:32.431Z,80.10
2023-01-20T07:59:58.948Z,79.60
2023-01-20T08:02:25.683Z,80.20
2023-01-20T08:04:52.308Z,80.10
2023-01-20T08:07:18.819Z,80.10
2023-01-20T08:09:45.972Z,80.10
2023-01-20T08:12:12.603Z,80.10
2023-01-20T08:14:39.089Z,80.10
2023-01-20T08:17:05.632Z,80.70
2023-01-20T08:19:32.123Z,80.10
2023-01-20T08:21:58.706Z,80.10
2023-01-20T08:24:25.252Z,80.70
2023-01-20T08:26:52.181Z,80.20
2023-01-20T08:29:18.705Z,80.20
2023-01-20T08:31:45.484Z,80.20
2023-01-20T08:34:12.364Z,80.30
2023-01-20T08:36:39.727Z,80.30
2023-01-20T08:39:07.544Z,79.40
2023-01-20T08:41:35.734Z,79.10
2023-01-20T08:44:04.355Z,78.70
2023-01-20T08:46:31.473Z,78.20
2023-01-20T08:48:58.205Z,78.30
2023-01-20T08:51:26.728Z,77.10
2023-01-20T08:53:53.442Z,76.40
2023-01-20T08:56:20.011Z,75.20
2023-01-20T08:58:47.052Z,74.10
2023-01-20T09:01:18.035Z,73.30
2023-01-20T09:04:02.991Z,72.40
2023-01-20T09:06:31.180Z,72.40
2023-01-20T09:08:57.780Z,72.40
2023-01-20T09:11:25.066Z,72.40
2023-01-20T09:13:51.775Z,72.40
2023-01-20T09:16:19.509Z,72.50
2023-01-20T09:18:46.157Z,72.50
2023-01-20T09:21:12.880Z,72.50
2023-01-20T09:23:39.964Z,72.60
2023-01-20T09:26:07.794Z,72.00
2023-01-20T09:28:34.693Z,70.60
2023-01-20T09:31:04.123Z,70.00
2023-01-20T09:33:30.977Z,67.50
2023-01-20T09:35:58.010Z,66.10
2023-01-20T09:38:43.867Z,65.50
2023-01-20T09:41:32.235Z,64.20
2023-01-20T09:44:01.564Z,64.30
2023-01-20T09:46:28.104Z,64.30
2023-01-20T09:49:13.412Z,64.40
2023-01-20T09:52:06.129Z,64.40
2023-01-20T09:54:37.990Z,64.10
2023-01-20T09:57:06.460Z,64.40
2023-01-20T09:59:38.931Z,64.30
2023-01-20T10:02:10.271Z,64.40
2023-01-20T10:04:43.726Z,64.40
2023-01-20T10:07:27.256Z,64.50
2023-01-20T10:09:59.312Z,64.40
2023-01-20T10:12:25.960Z,65.30
2023-01-20T10:14:55.528Z,68.60
2023-01-20T10:17:28.885Z,67.90
2023-01-20T10:20:04.002Z,68.50
2023-01-20T10:22:33.636Z,68.80
2023-01-20T10:25:06.370Z,70.50
2023-01-20T10:27:34.728Z,70.10
2023-01-20T10:30:07.613Z,68.90
2023-01-20T10:32:36.601Z,68.40
2023-01-20T10:35:15.384Z,70.10
2023-01-20T10:37:42.701Z,72.70
2023-01-20T10:40:21.406Z,72.70
2023-01-20T10:42:49.411Z,72.70
2023-01-20T10:45:21.351Z,70.40
2023-01-20T10:47:53.468Z,72.80
2023-01-20T10:50:30.999Z,72.80
2023-01-20T10:52:57.480Z,73.00
2023-01-20T10:55:30.983Z,70.50
2023-01-20T10:58:00.496Z,68.80
2023-01-20T11:00:28.711Z,64.50
2023-01-20T11:02:58.967Z,63.80
2023-01-20T11:05:27.393Z,64.70
2023-01-20T11:07:54.254Z,67.90
2023-01-20T11:10:22.194Z,66.80
2023-01-20T11:12:51.152Z,60.60
2023-01-20T11:15:20.764Z,55.80
2023-01-20T11:18:07.231Z,55.80
2023-01-20T11:20:35.548Z,53.00
2023-01-20T11:23:02.079Z,54.50
2023-01-20T11:25:28.642Z,54.50
2023-01-20T11:27:55.147Z,50.50
2023-01-20T11:30:29.507Z,50.90
2023-01-20T11:33:14.824Z,46.30
2023-01-20T11:35:56.098Z,45.90
2023-01-20T11:38:26.642Z,46.20
2023-01-20T11:40:54.102Z,44.50
2023-01-20T11:43:28.049Z,43.70
2023-01-20T11:46:09.183Z,45.90
2023-01-20T11:48:35.708Z,44.50
2023-01-20T11:51:02.584Z,41.70
2023-01-20T11:53:31.597Z,44.20
2023-01-20T11:56:01.065Z,39.60
2023-01-20T11:58:28.733Z,40.70
2023-01-20T12:01:05.772Z,40.20
2023-01-20T12:03:38.445Z,39.00
2023-01-20T12:06:13.248Z,38.80
2023-01-20T12:08:55.099Z,41.10
2023-01-20T12:11:31.185Z,38.80
2023-01-20T12:14:24.770Z,38.50
2023-01-20T12:17:14.757Z,36.10
2023-01-20T12:19:51.614Z,35.20
2023-01-20T12:22:20.937Z,35.10
2023-01-20T12:25:06.433Z,35.00
2023-01-20T12:27:33.737Z,36.20
2023-01-20T12:30:02.734Z,37.40
2023-01-20T12:32:31.757Z,38.80
2023-01-20T12:34:58.362Z,40.50
2023-01-20T12:37:30.738Z,41.10
2023-01-20T12:40:00.364Z,40.60
2023-01-20T12:42:34.169Z,40.10
2023-01-20T12:45:07.833Z,38.60
2023-01-20T12:47:40.334Z,41.00
2023-01-20T12:50:18.228Z,42.90
2023-01-20T12:52:51.411Z,40.40
2023-01-20T12:55:17.954Z,40.60
2023-01-20T12:57:44.422Z,43.00
2023-01-20T13:00:29.748Z,44.30
2023-01-20T13:02:56.405Z,44.20
2023-01-20T13:05:26.053Z,41.70
2023-01-20T13:08:00.771Z,41.00
2023-01-20T13:10:39.596Z,41.90
2023-01-20T13:13:06.067Z,41.70
2023-01-20T13:15:44.920Z,40.80
2023-01-20T13:18:11.461Z,38.20
2023-01-20T13:20:40.463Z,36.80
2023-01-20T13:23:07.095Z,34.90
2023-01-20T13:25:34.323Z,34.90
2023-01-20T13:28:01.108Z,34.90
2023-01-20T13:30:36.834Z,34.90
2023-01-20T13:33:06.998Z,34.90
2023-01-20T13:35:42.203Z,34.80
2023-01-20T13:38:17.670Z,36.60
2023-01-20T13:40:49.286Z,37.40
2023-01-20T13:43:25.257Z,39.60
2023-01-20T13:46:03.763Z,42.70
2023-01-20T13:48:31.300Z,45.20
2023-01-20T13:51:16.921Z,45.30
2023-01-20T13:53:43.561Z,45.20
2023-01-20T13:56:30.310Z,45.10
2023-01-20T13:58:59.858Z,45.00
2023-01-20T14:01:27.502Z,45.70
2023-01-20T14:04:12.621Z,48.80
2023-01-20T14:06:44.628Z,50.30
2023-01-20T14:09:17.949Z,51.60
2023-01-20T14:11:55.144Z,50.50
2023-01-20T14:14:23.406Z,52.90
2023-01-20T14:16:50.578Z,53.10
2023-01-20T14:19:25.363Z,55.50
2023-01-20T14:21:53.487Z,55.50
2023-01-20T14:24:27.314Z,53.30
2023-01-20T14:27:05.861Z,53.20
2023-01-20T14:29:32.368Z,52.10
2023-01-20T14:31:59.544Z,53.80
2023-01-20T14:34:28.078Z,54.50
2023-01-20T14:36:58.825Z,53.30
2023-01-20T14:39:26.534Z,48.80
2023-01-20T14:41:54.168Z,46.70
2023-01-20T14:44:24.620Z,49.00
2023-01-20T14:46:52.701Z,48.30
2023-01-20T14:49:20.226Z,50.40
2023-01-20T14:51:48.328Z,45.20
2023-01-20T14:54:28.964Z,45.20
2023-01-20T14:56:55.914Z,46.70
2023-01-20T14:59:22.515Z,50.20
2023-01-20T15:01:53.123Z,49.70
2023-01-20T15:04:19.742Z,51.40
2023-01-20T15:06:53.594Z,52.60
2023-01-20T15:09:33.919Z,52.00
2023-01-20T15:12:19.166Z,52.40
2023-01-20T15:14:56.438Z,55.20
2023-01-20T15:17:22.960Z,55.20
2023-01-20T15:19:49.599Z,55.80
2023-01-20T15:22:17.808Z,55.50
2023-01-20T15:24:47.103Z,55.20
2023-01-20T15:27:24.496Z,56.50
2023-01-20T15:30:10.589Z,58.20
2023-01-20T15:32:38.711Z,57.30
2023-01-20T15:35:05.579Z,55.50
2023-01-20T15:37:32.135Z,55.10
2023-01-20T15:39:59.454Z,55.10
2023-01-20T15:42:26.013Z,55.10
2023-01-20T15:44:52.573Z,55.10
2023-01-20T15:47:26.002Z,55.60
2023-01-20T15:49:52.501Z,55.00
2023-01-20T15:52:19.280Z,55.00
2023-01-20T15:54:45.771Z,54.90
2023-01-20T15:57:13.296Z,56.90
2023-01-20T15:59:39.887Z,57.10
2023-01-20T16:02:15.058Z,57.40
2023-01-20T16:04:41.615Z,57.50
2023-01-20T16:07:10.986Z,57.40
2023-01-20T16:09:38.586Z,56.90
2023-01-20T16:12:05.218Z,58.20
2023-01-20T16:14:31.729Z,57.90
2023-01-20T16:16:58.228Z,58.60
2023-01-20T16:19:24.735Z,59.00
2023-01-20T16:21:51.381Z,59.30
2023-01-20T16:24:17.932Z,60.60
2023-01-20T16:26:45.802Z,59.20
2023-01-20T16:29:12.480Z,60.40
2023-01-20T16:31:39.086Z,62.60
2023-01-20T16:34:05.641Z,62.70
2023-01-20T16:36:32.208Z,63.40
2023-01-20T16:38:58.756Z,63.40
2023-01-20T16:41:26.405Z,63.30
2023-01-20T16:43:53.789Z,63.30
2023-01-20T16:46:21.789Z,64.50
2023-01-20T16:48:48.672Z,65.50
2023-01-20T16:51:22.627Z,64.80
2023-01-20T16:53:49.406Z,64.80
2023-01-20T16:56:17.024Z,64.60
2023-01-20T16:58:43.808Z,64.90
2023-01-20T17:01:13.144Z,65.30
2023-01-20T17:03:40.253Z,65.70
2023-01-20T17:06:14.968Z,66.20
2023-01-20T17:08:43.748Z,66.70
2023-01-20T17:11:10.307Z,67.30
2023-01-20T17:13:38.347Z,67.20
2023-01-20T17:16:05.753Z,67.50
2023-01-20T17:18:32.297Z,69.10
2023-01-20T17:21:03.841Z,71.30
2023-01-20T17:23:30.388Z,71.30
2023-01-20T17:25:57.088Z,71.30
2023-01-20T17:28:23.680Z,71.80
2023-01-20T17:30:50.208Z,72.80
2023-01-20T17:33:16.732Z,72.20
2023-01-20T17:35:43.501Z,72.90
2023-01-20T17:38:10.659Z,73.40
2023-01-20T17:40:37.227Z,73.40
2023-01-20T17:43:04.661Z,73.40
2023-01-20T17:45:31.949Z,73.40
2023-01-20T17:47:58.479Z,72.80
2023-01-20T17:50:26.545Z,72.50
2023-01-20T17:52:53.131Z,72.20
2023-01-20T17:55:19.669Z,72.50
2023-01-20T17:57:46.153Z,72.40
2023-01-20T18:00:13.068Z,71.50
2023-01-20T18:02:39.738Z,71.30
2023-01-20T18:05:06.639Z,70.90
2023-01-20T18:07:33.951Z,70.90
2023-01-20T18:10:00.522Z,71.00
2023-01-20T18:12:27.256Z,70.90
2023-01-20T18:14:58.573Z,70.80
2023-01-20T18:17:25.115Z,70.80
2023-01-20T18:19:51.661Z,70.70
2023-01-20T18:22:18.895Z,70.80
2023-01-20T18:24:45.444Z,70.80
2023-01-20T18:27:11.976Z,70.70
2023-01-20T18:29:38.575Z,71.70
2023-01-20T18:32:05.224Z,72.50
2023-01-20T18:34:31.800Z,73.20
2023-01-20T18:36:58.307Z,74.50
2023-01-20T18:39:25.224Z,75.70
2023-01-20T18:41:51.817Z,76.90
2023-01-20T18:44:18.991Z,78.50
2023-01-20T18:46:45.714Z,78.60
2023-01-20T18:49:13.105Z,78.20
2023-01-20T18:51:39.644Z,77.50
2023-01-20T18:54:07.676Z,77.30
2023-01-20T18:56:34.413Z,76.80
2023-01-20T18:59:01.027Z,76.90
2023-01-20T19:01:33.633Z,77.00
2023-01-20T19:04:01.399Z,76.80
2023-01-20T19:06:29.021Z,76.90
2023-01-20T19:08:56.543Z,76.90
2023-01-20T19:11:25.044Z,76.20
2023-01-20T19:13:53.341Z,74.90
2023-01-20T19:16:21.545Z,74.60
2023-01-20T19:18:52.034Z,74.20
2023-01-20T19:21:18.820Z,74.20
2023-01-20T19:23:48.678Z,74.50
2023-01-20T19:26:18.489Z,74.50
2023-01-20T19:28:45.811Z,75.20
2023-01-20T19:31:14.117Z,75.80
2023-01-20T19:33:40.674Z,75.40
2023-01-20T19:36:08.831Z,75.70
2023-01-20T19:38:35.403Z,76.60
2023-01-20T19:41:05.901Z,76.40
2023-01-20T19:43:32.785Z,78.40
2023-01-20T19:46:06.930Z,78.40
2023-01-20T19:48:33.547Z,78.70
2023-01-20T19:51:07.248Z,79.20
2023-01-20T19:53:33.905Z,78.50
2023-01-20T19:56:04.672Z,78.40
2023-01-20T19:58:31.159Z,78.40
2023-01-20T20:01:07.996Z,78.40
2023-01-20T20:03:34.835Z,78.40
2023-01-20T20:06:01.743Z,78.40
2023-01-20T20:08:28.463Z,78.40
2023-01-20T20:10:55.393Z,79.30
2023-01-20T20:13:22.842Z,79.90
2023-01-20T20:15:49.687Z,80.00
2023-01-20T20:18:16.193Z,80.90
2023-01-20T20:20:44.488Z,82.10
2023-01-20T20:23:11.097Z,82.30
2023-01-20T20:25:37.753Z,82.20
2023-01-20T20:28:04.805Z,81.90
2023-01-20T20:30:31.414Z,81.10
2023-01-20T20:32:58.569Z,80.60
2023-01-20T20:35:25.106Z,80.60
2023-01-20T20:37:51.712Z,80.10
2023-01-20T20:40:18.604Z,80.50
2023-01-20T20:42:45.229Z,81.10
2023-01-20T20:45:11.982Z,80.60
2023-01-20T20:47:38.536Z,81.10
2023-01-20T20:50:05.459Z,81.50
2023-01-20T20:52:32.066Z,81.30
2023-01-20T20:54:58.696Z,81.20
2023-01-20T20:57:25.220Z,82.10
2023-01-20T20:59:58.970Z,82.30
2023-01-20T21:02:26.116Z,82.20
2023-01-20T21:04:52.704Z,80.90
2023-01-20T21:07:19.480Z,80.90
2023-01-20T21:09:45.986Z,80.80
2023-01-20T21:12:12.520Z,80.70
2023-01-20T21:14:39.036Z,80.10
2023-01-20T21:17:05.558Z,80.10
2023-01-20T21:19:32.094Z,80.40
2023-01-20T21:21:59.116Z,80.60
2023-01-20T21:24:29.894Z,80.30
2023-01-20T21:26:56.478Z,80.20
2023-01-20T21:29:23.117Z,79.10
2023-01-20T21:31:50.259Z,79.40
2023-01-20T21:34:16.901Z,78.40
2023-01-20T21:36:43.417Z,78.70
2023-01-20T21:39:14.179Z,78.00
2023-01-20T21:41:40.989Z,78.00
2023-01-20T21:44:29.259Z,77.90
2023-01-20T21:47:00.380Z,77.30
2023-01-20T21:49:46.135Z,76.30
2023-01-20T21:52:32.536Z,76.40
2023-01-20T21:54:59.213Z,76.70
2023-01-20T21:57:26.173Z,76.90
2023-01-20T21:59:52.752Z,77.60
2023-01-20T22:02:19.363Z,76.30
2023-01-20T22:04:46.153Z,77.20
2023-01-20T22:07:13.135Z,76.20
2023-01-20T22:09:39.880Z,75.30
2023-01-20T22:12:07.022Z,74.70
2023-01-20T22:14:33.545Z,75.30
2023-01-20T22:17:00.150Z,75.30
2023-01-20T22:19:27.051Z,77.50
2023-01-20T22:21:53.864Z,77.80
2023-01-20T22:24:20.425Z,77.70
2023-01-20T22:26:48.250Z,77.80
2023-01-20T22:29:15.236Z,77.70
2023-01-20T22:31:41.848Z,77.60
2023-01-20T22:34:09.114Z,77.70
2023-01-20T22:36:36.372Z,79.50
2023-01-20T22:39:03.741Z,81.00
2023-01-20T22:41:30.411Z,82.30
2023-01-20T22:43:56.999Z,84.80
2023-01-20T22:46:24.842Z,85.60
2023-01-20T22:48:51.467Z,84.70
2023-01-20T22:51:19.516Z,85.00
2023-01-20T22:53:46.108Z,85.80
2023-01-20T22:56:14.434Z,85.60
2023-01-20T22:58:41.475Z,85.70
2023-01-20T23:01:12.295Z,85.50
2023-01-20T23:03:38.918Z,85.60
2023-01-20T23:06:05.484Z,85.00
2023-01-20T23:08:32.059Z,84.80
2023-01-20T23:11:09.580Z,83.20
2023-01-20T23:13:38.413Z,82.90
2023-01-20T23:16:06.581Z,82.40
2023-01-20T23:18:34.851Z,82.70
2023-01-20T23:21:01.405Z,81.60
2023-01-20T23:23:27.958Z,83.00
2023-01-20T23:26:05.218Z,84.50
2023-01-20T23:28:32.470Z,83.90
2023-01-20T23:31:00.443Z,85.20
2023-01-20T23:33:27.060Z,84.90
2023-01-20T23:35:53.587Z,85.50
2023-01-20T23:38:20.126Z,87.40
2023-01-20T23:40:49.588Z,89.40
2023-01-20T23:43:16.285Z,90.20
2023-01-20T23:45:42.855Z,90.70
2023-01-20T23:48:09.440Z,91.40
2023-01-20T23:50:35.936Z,91.40
2023-01-20T23:53:02.536Z,91.40
2023-01-20T23:55:29.104Z,91.50
2023-01-20T23:57:56.071Z,91.70
